createdAt,value
2018-08-04T00:02:19.934Z,26.14
2018-08-04T00:04:50.240Z,26.10
2018-08-04T00:07:20.125Z,26.08
2018-08-04T00:09:49.946Z,26.04
2018-08-04T00:12:20.562Z,26.02
2018-08-04T00:14:51.345Z,25.98
2018-08-04T00:17:22.753Z,25.95
2018-08-04T00:19:53.416Z,25.93
2018-08-04T00:22:24.413Z,25.90
2018-08-04T00:24:56.178Z,25.87
2018-08-04T00:27:26.746Z,25.83
2018-08-04T00:29:57.363Z,25.81
2018-08-04T00:32:28.433Z,25.79
2018-08-04T00:35:06.949Z,25.75
2018-08-04T00:37:37.071Z,25.72
2018-08-04T00:40:08.550Z,25.70
2018-08-04T00:42:38.573Z,25.67
2018-08-04T00:45:09.257Z,25.63
2018-08-04T00:47:39.183Z,25.60
2018-08-04T00:50:10.497Z,25.57
2018-08-04T00:52:40.437Z,25.54
2018-08-04T00:55:10.364Z,25.50
2018-08-04T00:57:40.363Z,25.47
2018-08-04T01:00:10.335Z,25.43
2018-08-04T01:02:40.333Z,25.39
2018-08-04T01:05:11.345Z,25.36
2018-08-04T01:07:42.639Z,25.33
2018-08-04T01:10:13.354Z,25.29
2018-08-04T01:12:44.320Z,25.26
2018-08-04T01:15:15.677Z,25.23
2018-08-04T01:17:46.300Z,25.21
2018-08-04T01:20:17.637Z,25.16
2018-08-04T01:22:48.313Z,25.13
2018-08-04T01:25:19.247Z,25.10
2018-08-04T01:27:50.682Z,25.07
2018-08-04T01:30:22.207Z,25.05
2018-08-04T01:32:52.765Z,25.01
2018-08-04T01:35:23.320Z,24.95
2018-08-04T01:37:55.023Z,24.92
2018-08-04T01:40:25.611Z,24.88
2018-08-04T01:42:56.438Z,24.86
2018-08-04T01:45:27.290Z,24.82
2018-08-04T01:47:58.273Z,24.78
2018-08-04T01:50:29.272Z,24.76
2018-08-04T01:53:00.989Z,24.74
2018-08-04T01:55:31.879Z,24.71
2018-08-04T01:58:02.483Z,24.70
2018-08-04T02:00:33.321Z,24.68
2018-08-04T02:03:04.321Z,24.66
2018-08-04T02:05:35.629Z,24.65
2018-08-04T02:08:06.430Z,24.62
2018-08-04T02:10:37.309Z,24.61
2018-08-04T02:13:08.996Z,24.59
2018-08-04T02:15:40.645Z,24.38
2018-08-04T02:18:10.558Z,24.55
2018-08-04T02:20:41.218Z,24.53
2018-08-04T02:23:12.654Z,24.43
2018-08-04T02:25:43.267Z,24.48
2018-08-04T02:28:14.596Z,24.48
2018-08-04T02:30:45.723Z,24.45
2018-08-04T02:33:16.352Z,24.44
2018-08-04T02:35:47.621Z,24.42
2018-08-04T02:38:23.600Z,24.39
2018-08-04T02:40:53.595Z,24.36
2018-08-04T02:43:24.082Z,24.34
2018-08-04T02:45:54.431Z,24.23
2018-08-04T02:48:24.334Z,24.27
2018-08-04T02:50:54.193Z,24.26
2018-08-04T02:53:24.753Z,24.24
2018-08-04T02:55:55.303Z,24.17
2018-08-04T02:58:26.319Z,24.07
2018-08-04T03:00:57.309Z,24.04
2018-08-04T03:03:28.646Z,24.04
2018-08-04T03:05:59.205Z,24.06
2018-08-04T03:08:30.621Z,24.05
2018-08-04T03:11:01.795Z,24.02
2018-08-04T03:13:32.376Z,24.03
2018-08-04T03:16:03.307Z,24.04
2018-08-04T03:18:34.299Z,24.01
2018-08-04T03:21:05.697Z,23.98
2018-08-04T03:23:36.273Z,23.96
2018-08-04T03:26:07.288Z,23.94
2018-08-04T03:28:38.721Z,23.93
2018-08-04T03:31:09.345Z,23.90
2018-08-04T03:33:40.695Z,23.89
2018-08-04T03:36:11.441Z,23.86
2018-08-04T03:38:43.299Z,23.82
2018-08-04T03:41:13.286Z,23.79
2018-08-04T03:43:44.598Z,23.79
2018-08-04T03:46:15.691Z,23.78
2018-08-04T03:48:46.337Z,23.75
2018-08-04T03:51:17.645Z,23.72
2018-08-04T03:53:48.357Z,23.69
2018-08-04T03:56:19.256Z,23.68
2018-08-04T03:58:50.644Z,23.62
2018-08-04T04:01:21.333Z,23.60
2018-08-04T04:03:52.288Z,23.59
2018-08-04T04:06:23.617Z,23.58
2018-08-04T04:08:54.373Z,23.57
2018-08-04T04:11:25.522Z,23.56
2018-08-04T04:13:56.369Z,23.57
2018-08-04T04:16:27.259Z,23.57
2018-08-04T04:18:58.598Z,23.58
2018-08-04T04:21:29.347Z,23.57
2018-08-04T04:24:00.358Z,23.59
2018-08-04T04:26:31.526Z,23.58
2018-08-04T04:29:02.372Z,23.60
2018-08-04T04:31:32.981Z,23.62
2018-08-04T04:34:03.524Z,23.63
2018-08-04T04:36:34.348Z,23.65
2018-08-04T04:39:07.855Z,23.67
2018-08-04T04:41:38.376Z,23.70
2018-08-04T04:44:08.663Z,23.72
2018-08-04T04:46:41.220Z,23.75
2018-08-04T04:49:12.617Z,23.78
2018-08-04T04:51:43.830Z,23.79
2018-08-04T04:54:14.260Z,23.83
2018-08-04T04:56:44.146Z,23.84
2018-08-04T04:59:14.129Z,23.86
2018-08-04T05:01:44.690Z,23.88
2018-08-04T05:04:15.382Z,23.91
2018-08-04T05:06:46.354Z,23.93
2018-08-04T05:09:17.268Z,23.96
2018-08-04T05:11:48.679Z,23.96
2018-08-04T05:14:19.275Z,24.00
2018-08-04T05:16:50.613Z,24.04
2018-08-04T05:19:21.416Z,24.09
2018-08-04T05:21:52.301Z,24.12
2018-08-04T05:24:23.697Z,24.12
2018-08-04T05:26:54.327Z,24.16
2018-08-04T05:29:25.645Z,24.18
2018-08-04T05:31:57.189Z,24.17
2018-08-04T05:34:27.784Z,24.16
2018-08-04T05:36:58.330Z,24.24
2018-08-04T05:39:29.412Z,24.32
2018-08-04T05:42:00.369Z,24.36
2018-08-04T05:44:31.496Z,24.40
2018-08-04T05:47:02.301Z,24.48
2018-08-04T05:49:33.621Z,24.49
2018-08-04T05:52:04.307Z,24.53
2018-08-04T05:54:35.716Z,24.59
2018-08-04T05:57:06.378Z,24.61
2018-08-04T05:59:37.471Z,24.71
2018-08-04T06:02:08.379Z,24.72
2018-08-04T06:04:39.377Z,24.74
2018-08-04T06:07:10.277Z,24.81
2018-08-04T06:09:41.585Z,24.86
2018-08-04T06:12:12.237Z,24.96
2018-08-04T06:14:43.760Z,25.04
2018-08-04T06:17:14.321Z,25.10
2018-08-04T06:19:45.282Z,25.13
2018-08-04T06:22:16.553Z,25.22
2018-08-04T06:24:47.325Z,25.34
2018-08-04T06:27:18.712Z,25.47
2018-08-04T06:29:49.407Z,25.57
2018-08-04T06:32:20.254Z,25.58
2018-08-04T06:34:51.678Z,25.65
2018-08-04T06:37:22.425Z,25.72
2018-08-04T06:39:53.425Z,25.79
2018-08-04T06:42:24.291Z,25.87
2018-08-04T06:44:55.665Z,25.98
2018-08-04T06:47:26.777Z,26.14
2018-08-04T06:49:57.429Z,26.24
2018-08-04T06:52:28.696Z,26.35
2018-08-04T06:54:59.364Z,26.42
2018-08-04T06:57:30.648Z,26.43
2018-08-04T07:00:01.819Z,26.47
2018-08-04T07:02:32.369Z,26.56
2018-08-04T07:05:03.343Z,26.63
2018-08-04T07:07:34.701Z,26.69
2018-08-04T07:10:05.558Z,26.72
2018-08-04T07:12:36.338Z,26.76
2018-08-04T07:15:07.802Z,26.77
2018-08-04T07:17:38.413Z,26.84
2018-08-04T07:20:09.561Z,26.94
2018-08-04T07:22:40.422Z,27.06
2018-08-04T07:25:11.410Z,27.14
2018-08-04T07:27:41.353Z,27.20
2018-08-04T07:30:14.385Z,27.27
2018-08-04T07:32:45.466Z,27.32
2018-08-04T07:35:15.449Z,27.39
2018-08-04T07:37:45.374Z,27.42
2018-08-04T07:40:16.549Z,27.42
2018-08-04T07:42:47.339Z,27.45
2018-08-04T07:45:18.702Z,27.46
2018-08-04T07:47:49.327Z,27.49
2018-08-04T07:50:20.705Z,27.54
2018-08-04T07:52:51.279Z,27.61
2018-08-04T07:55:22.324Z,27.75
2018-08-04T07:57:53.677Z,27.89
2018-08-04T08:00:24.367Z,27.94
2018-08-04T08:02:55.384Z,28.16
2018-08-04T08:05:26.395Z,28.39
2018-08-04T08:07:57.372Z,28.59
2018-08-04T08:10:28.364Z,28.73
2018-08-04T08:12:59.384Z,28.81
2018-08-04T08:15:30.699Z,28.93
2018-08-04T08:18:06.544Z,29.05
2018-08-04T08:20:36.525Z,29.15
2018-08-04T08:23:07.457Z,29.30
2018-08-04T08:25:37.245Z,29.52
2018-08-04T08:28:07.369Z,29.63
2018-08-04T08:30:37.334Z,29.61
2018-08-04T08:33:07.244Z,29.79
2018-08-04T08:35:39.173Z,29.94
2018-08-04T08:38:09.705Z,30.12
2018-08-04T08:40:40.367Z,30.35
2018-08-04T08:43:11.180Z,30.66
2018-08-04T08:45:43.572Z,30.74
2018-08-04T08:48:13.359Z,31.03
2018-08-04T08:50:44.392Z,31.13
2018-08-04T08:53:15.447Z,31.00
2018-08-04T08:55:46.355Z,31.08
2018-08-04T08:58:17.736Z,31.06
2018-08-04T09:00:48.460Z,31.04
2018-08-04T09:03:19.344Z,30.91
2018-08-04T09:05:50.674Z,30.95
2018-08-04T09:08:21.326Z,31.03
2018-08-04T09:10:52.336Z,30.92
2018-08-04T09:13:23.254Z,30.91
2018-08-04T09:15:54.625Z,31.17
2018-08-04T09:18:25.205Z,31.44
2018-08-04T09:20:56.793Z,31.68
2018-08-04T09:23:27.375Z,31.77
2018-08-04T09:25:58.309Z,32.03
2018-08-04T09:28:30.019Z,32.00
2018-08-04T09:31:00.705Z,32.21
2018-08-04T09:33:31.340Z,32.50
2018-08-04T09:36:02.272Z,32.66
2018-08-04T09:38:33.269Z,32.65
2018-08-04T09:41:04.700Z,32.66
2018-08-04T09:43:35.452Z,32.45
2018-08-04T09:46:06.836Z,32.32
2018-08-04T09:48:37.364Z,32.42
2018-08-04T09:51:08.354Z,32.51
2018-08-04T09:53:39.262Z,32.56
2018-08-04T09:56:10.572Z,32.94
2018-08-04T09:58:41.367Z,33.21
2018-08-04T10:01:17.113Z,33.06
2018-08-04T10:03:47.001Z,33.17
2018-08-04T10:06:17.438Z,33.11
2018-08-04T10:08:47.232Z,33.02
2018-08-04T10:11:17.561Z,32.93
2018-08-04T10:13:47.670Z,32.97
2018-08-04T10:16:18.767Z,32.98
2018-08-04T10:18:49.837Z,32.39
2018-08-04T10:21:24.242Z,32.64
2018-08-04T10:23:54.999Z,32.85
2018-08-04T10:26:25.377Z,33.11
2018-08-04T10:28:55.237Z,33.53
2018-08-04T10:31:25.116Z,33.61
2018-08-04T10:33:55.693Z,33.49
2018-08-04T10:36:26.368Z,33.06
2018-08-04T10:38:57.349Z,33.34
2018-08-04T10:41:28.256Z,33.55
2018-08-04T10:43:59.656Z,33.72
2018-08-04T10:46:30.331Z,34.04
2018-08-04T10:49:01.334Z,34.05
2018-08-04T10:51:32.288Z,34.05
2018-08-04T10:54:03.345Z,33.83
2018-08-04T10:56:34.392Z,34.19
2018-08-04T10:59:05.393Z,34.53
2018-08-04T11:01:36.387Z,34.89
2018-08-04T11:04:08.217Z,35.16
2018-08-04T11:06:38.674Z,34.88
2018-08-04T11:09:11.775Z,34.18
2018-08-04T11:11:42.177Z,34.89
2018-08-04T11:14:12.141Z,35.10
2018-08-04T11:16:42.711Z,35.43
2018-08-04T11:19:13.329Z,35.61
2018-08-04T11:21:44.357Z,35.08
2018-08-04T11:24:15.444Z,34.95
2018-08-04T11:26:46.293Z,35.07
2018-08-04T11:29:17.391Z,35.38
2018-08-04T11:31:49.278Z,35.40
2018-08-04T11:34:19.354Z,35.12
2018-08-04T11:36:51.321Z,35.21
2018-08-04T11:39:21.316Z,35.07
2018-08-04T11:41:52.292Z,34.86
2018-08-04T11:44:23.290Z,34.60
2018-08-04T11:46:54.264Z,34.47
2018-08-04T11:49:25.228Z,34.36
2018-08-04T11:51:56.556Z,34.26
2018-08-04T11:54:27.238Z,34.22
2018-08-04T11:56:58.616Z,34.25
2018-08-04T11:59:29.342Z,34.26
2018-08-04T12:02:00.290Z,34.30
2018-08-04T12:04:31.399Z,33.88
2018-08-04T12:07:02.285Z,33.91
2018-08-04T12:09:33.747Z,33.86
2018-08-04T12:12:04.327Z,33.77
2018-08-04T12:14:35.319Z,33.84
2018-08-04T12:17:06.386Z,33.83
2018-08-04T12:19:37.333Z,33.83
2018-08-04T12:22:08.621Z,33.86
2018-08-04T12:24:39.329Z,33.71
2018-08-04T12:27:10.318Z,33.69
2018-08-04T12:29:40.202Z,33.68
2018-08-04T12:32:11.748Z,33.68
2018-08-04T12:34:42.306Z,33.48
2018-08-04T12:37:13.299Z,33.31
2018-08-04T12:39:44.341Z,33.24
2018-08-04T12:42:15.578Z,33.24
2018-08-04T12:44:46.229Z,33.29
2018-08-04T12:47:17.646Z,33.37
2018-08-04T12:49:48.338Z,33.45
2018-08-04T12:52:19.533Z,33.55
2018-08-04T12:54:50.324Z,33.53
2018-08-04T12:57:21.660Z,33.65
2018-08-04T12:59:53.292Z,33.55
2018-08-04T13:02:23.333Z,33.58
2018-08-04T13:04:54.306Z,33.58
2018-08-04T13:07:25.337Z,33.60
2018-08-04T13:09:56.850Z,33.50
2018-08-04T13:12:27.501Z,33.51
2018-08-04T13:14:57.336Z,33.46
2018-08-04T13:17:28.407Z,33.46
2018-08-04T13:19:59.275Z,33.49
2018-08-04T13:22:30.745Z,33.13
2018-08-04T13:25:01.370Z,32.93
2018-08-04T13:27:34.548Z,32.78
2018-08-04T13:30:05.110Z,32.77
2018-08-04T13:32:34.959Z,32.84
2018-08-04T13:35:05.475Z,32.50
2018-08-04T13:37:35.438Z,32.40
2018-08-04T13:40:06.601Z,32.36
2018-08-04T13:42:37.339Z,32.41
2018-08-04T13:45:08.759Z,32.28
2018-08-04T13:47:39.367Z,32.23
2018-08-04T13:50:10.362Z,31.70
2018-08-04T13:52:41.271Z,31.82
2018-08-04T13:55:12.277Z,31.79
2018-08-04T13:57:43.548Z,32.01
2018-08-04T14:00:14.290Z,32.20
2018-08-04T14:02:45.312Z,32.37
2018-08-04T14:05:16.365Z,32.45
2018-08-04T14:07:47.325Z,32.55
2018-08-04T14:10:18.405Z,32.66
2018-08-04T14:12:49.245Z,32.77
2018-08-04T14:15:20.552Z,32.73
2018-08-04T14:17:51.253Z,32.86
2018-08-04T14:20:22.596Z,33.02
2018-08-04T14:22:53.319Z,33.18
2018-08-04T14:25:24.252Z,33.33
2018-08-04T14:27:55.589Z,33.78
2018-08-04T14:30:26.266Z,34.17
2018-08-04T14:32:57.629Z,34.40
2018-08-04T14:35:28.921Z,34.53
2018-08-04T14:37:59.410Z,34.54
2018-08-04T14:40:30.277Z,34.50
2018-08-04T14:43:01.337Z,34.81
2018-08-04T14:45:32.288Z,35.12
2018-08-04T14:48:03.271Z,35.26
2018-08-04T14:50:34.616Z,34.96
2018-08-04T14:53:05.260Z,35.02
2018-08-04T14:55:36.547Z,35.30
2018-08-04T14:58:07.397Z,35.36
2018-08-04T15:00:45.054Z,35.51
2018-08-04T15:03:15.014Z,35.74
2018-08-04T15:05:44.921Z,35.96
2018-08-04T15:08:14.892Z,36.02
2018-08-04T15:10:44.927Z,36.02
2018-08-04T15:13:15.471Z,36.01
2018-08-04T15:15:45.410Z,35.79
2018-08-04T15:18:15.537Z,35.66
2018-08-04T15:20:46.245Z,35.37
2018-08-04T15:23:17.304Z,35.53
2018-08-04T15:25:47.247Z,35.34
2018-08-04T15:28:18.218Z,35.31
2018-08-04T15:30:49.555Z,35.35
2018-08-04T15:33:20.732Z,35.49
2018-08-04T15:35:51.388Z,35.59
2018-08-04T15:38:22.381Z,35.75
2018-08-04T15:40:53.668Z,35.67
2018-08-04T15:43:24.352Z,35.55
2018-08-04T15:45:54.295Z,35.56
2018-08-04T15:48:26.640Z,35.30
2018-08-04T15:50:56.480Z,35.50
2018-08-04T15:53:27.286Z,35.11
2018-08-04T15:55:58.273Z,35.10
2018-08-04T15:58:29.291Z,34.88
2018-08-04T16:01:00.316Z,34.91
2018-08-04T16:03:39.160Z,34.99
2018-08-04T16:06:09.229Z,34.95
2018-08-04T16:08:39.083Z,34.89
2018-08-04T16:11:09.029Z,34.82
2018-08-04T16:13:38.974Z,34.76
2018-08-04T16:16:09.375Z,34.67
2018-08-04T16:18:39.257Z,34.50
2018-08-04T16:21:09.222Z,34.41
2018-08-04T16:23:39.424Z,34.34
2018-08-04T16:26:10.318Z,34.24
2018-08-04T16:28:41.250Z,34.19
2018-08-04T16:31:12.822Z,34.12
2018-08-04T16:33:43.365Z,34.06
2018-08-04T16:36:14.307Z,33.99
2018-08-04T16:38:45.619Z,33.93
2018-08-04T16:41:16.329Z,33.84
2018-08-04T16:43:47.292Z,33.79
2018-08-04T16:46:24.938Z,33.77
2018-08-04T16:48:55.943Z,33.75
2018-08-04T16:51:25.880Z,33.67
2018-08-04T16:53:56.229Z,33.60
2018-08-04T16:56:26.045Z,33.55
2018-08-04T16:58:56.433Z,33.48
2018-08-04T17:01:26.621Z,33.40
2018-08-04T17:03:57.194Z,33.32
2018-08-04T17:06:27.081Z,33.21
2018-08-04T17:08:57.089Z,33.16
2018-08-04T17:11:27.652Z,33.07
2018-08-04T17:13:59.188Z,32.97
2018-08-04T17:16:29.217Z,32.86
2018-08-04T17:19:00.314Z,32.78
2018-08-04T17:21:31.282Z,32.67
2018-08-04T17:24:02.603Z,32.61
2018-08-04T17:26:33.259Z,32.50
2018-08-04T17:29:04.625Z,32.43
2018-08-04T17:31:35.163Z,32.36
2018-08-04T17:34:05.721Z,32.31
2018-08-04T17:36:36.367Z,32.22
2018-08-04T17:39:09.777Z,32.15
2018-08-04T17:41:40.477Z,32.10
2018-08-04T17:44:10.334Z,31.99
2018-08-04T17:46:40.182Z,31.90
2018-08-04T17:49:11.845Z,31.88
2018-08-04T17:51:42.384Z,31.87
2018-08-04T17:54:13.347Z,31.85
2018-08-04T17:56:44.253Z,31.82
2018-08-04T17:59:15.758Z,31.77
2018-08-04T18:01:46.909Z,31.63
2018-08-04T18:04:17.434Z,31.63
2018-08-04T18:06:48.309Z,31.57
2018-08-04T18:09:19.360Z,31.50
2018-08-04T18:11:50.393Z,31.41
2018-08-04T18:14:21.334Z,31.33
2018-08-04T18:16:52.405Z,31.22
2018-08-04T18:19:23.313Z,31.44
2018-08-04T18:21:54.304Z,31.03
2018-08-04T18:24:25.732Z,30.74
2018-08-04T18:26:56.394Z,30.50
2018-08-04T18:29:27.352Z,30.42
2018-08-04T18:31:58.287Z,30.38
2018-08-04T18:34:28.225Z,30.39
2018-08-04T18:36:59.743Z,30.36
2018-08-04T18:39:30.527Z,30.27
2018-08-04T18:42:01.337Z,30.16
2018-08-04T18:44:32.837Z,30.08
2018-08-04T18:47:03.628Z,30.02
2018-08-04T18:49:34.351Z,29.96
2018-08-04T18:52:06.364Z,29.93
2018-08-04T18:54:36.352Z,29.91
2018-08-04T18:57:07.639Z,29.89
2018-08-04T18:59:38.461Z,29.83
2018-08-04T19:02:09.373Z,29.83
2018-08-04T19:04:40.252Z,29.80
2018-08-04T19:07:11.614Z,29.80
2018-08-04T19:09:42.337Z,29.80
2018-08-04T19:12:13.282Z,29.81
2018-08-04T19:14:44.689Z,29.78
2018-08-04T19:17:15.843Z,29.76
2018-08-04T19:19:46.405Z,29.74
2018-08-04T19:22:17.352Z,29.69
2018-08-04T19:24:48.287Z,29.65
2018-08-04T19:27:19.642Z,29.61
2018-08-04T19:29:50.353Z,29.57
2018-08-04T19:32:21.351Z,29.45
2018-08-04T19:34:52.429Z,29.31
2018-08-04T19:37:23.333Z,29.30
2018-08-04T19:39:54.427Z,29.24
2018-08-04T19:42:26.249Z,29.19
2018-08-04T19:44:56.241Z,29.15
2018-08-04T19:47:27.709Z,29.11
2018-08-04T19:49:58.359Z,29.04
2018-08-04T19:52:29.394Z,29.01
2018-08-04T19:55:00.378Z,29.01
2018-08-04T19:57:31.397Z,28.58
2018-08-04T20:00:02.323Z,28.92
2018-08-04T20:02:33.646Z,28.88
2018-08-04T20:05:04.257Z,28.83
2018-08-04T20:07:36.404Z,28.81
2018-08-04T20:10:06.475Z,28.77
2018-08-04T20:12:37.264Z,28.69
2018-08-04T20:15:08.846Z,28.66
2018-08-04T20:17:39.631Z,28.64
2018-08-04T20:20:10.512Z,28.58
2018-08-04T20:22:41.374Z,28.51
2018-08-04T20:25:12.623Z,28.48
2018-08-04T20:27:43.357Z,28.42
2018-08-04T20:30:14.394Z,28.40
2018-08-04T20:32:46.540Z,28.35
2018-08-04T20:35:16.623Z,28.26
2018-08-04T20:37:47.390Z,28.21
2018-08-04T20:40:18.439Z,28.16
2018-08-04T20:42:49.359Z,28.12
2018-08-04T20:45:20.629Z,28.09
2018-08-04T20:47:51.348Z,28.03
2018-08-04T20:50:22.863Z,27.99
2018-08-04T20:52:53.781Z,27.94
2018-08-04T20:55:24.535Z,27.87
2018-08-04T20:57:55.929Z,27.83
2018-08-04T21:00:26.584Z,27.78
2018-08-04T21:02:57.517Z,27.73
2018-08-04T21:05:28.526Z,27.69
2018-08-04T21:07:59.661Z,27.63
2018-08-04T21:10:30.397Z,27.49
2018-08-04T21:13:02.619Z,27.40
2018-08-04T21:15:33.614Z,27.38
2018-08-04T21:18:03.736Z,27.35
2018-08-04T21:20:34.634Z,27.30
2018-08-04T21:23:05.265Z,27.30
2018-08-04T21:25:37.095Z,27.29
2018-08-04T21:28:07.677Z,27.26
2018-08-04T21:30:38.650Z,27.12
2018-08-04T21:33:09.307Z,27.13
2018-08-04T21:35:41.472Z,27.09
2018-08-04T21:38:11.523Z,27.07
2018-08-04T21:40:42.745Z,27.05
2018-08-04T21:43:13.437Z,27.03
2018-08-04T21:45:44.706Z,26.85
2018-08-04T21:48:15.469Z,26.58
2018-08-04T21:50:46.360Z,26.42
2018-08-04T21:53:18.379Z,26.46
2018-08-04T21:55:48.784Z,26.48
2018-08-04T21:58:19.454Z,26.49
2018-08-04T22:00:56.352Z,26.32
2018-08-04T22:03:26.723Z,26.45
2018-08-04T22:05:56.816Z,26.43
2018-08-04T22:08:37.366Z,26.43
2018-08-04T22:11:07.887Z,26.41
2018-08-04T22:13:37.894Z,26.37
2018-08-04T22:16:09.913Z,26.31
2018-08-04T22:18:40.207Z,26.30
2018-08-04T22:21:10.026Z,26.28
2018-08-04T22:23:39.996Z,26.25
2018-08-04T22:26:10.402Z,26.22
2018-08-04T22:28:40.535Z,26.22
2018-08-04T22:31:11.287Z,26.19
2018-08-04T22:33:41.302Z,26.15
2018-08-04T22:36:11.169Z,26.10
2018-08-04T22:38:41.374Z,26.06
2018-08-04T22:41:11.830Z,26.04
2018-08-04T22:43:41.892Z,26.02
2018-08-04T22:46:17.259Z,26.00
2018-08-04T22:48:49.189Z,25.97
2018-08-04T22:51:24.266Z,25.94
2018-08-04T22:53:54.109Z,25.91
2018-08-04T22:56:24.109Z,25.88
2018-08-04T22:58:53.977Z,25.87
2018-08-04T23:01:23.954Z,25.85
2018-08-04T23:03:53.954Z,25.83
2018-08-04T23:06:23.917Z,25.79
2018-08-04T23:08:53.889Z,25.76
2018-08-04T23:11:23.822Z,25.65
2018-08-04T23:13:53.829Z,25.70
2018-08-04T23:16:23.756Z,25.69
2018-08-04T23:18:53.646Z,25.66
2018-08-04T23:21:23.648Z,25.62
2018-08-04T23:23:54.140Z,25.60
2018-08-04T23:26:23.981Z,25.57
2018-08-04T23:28:54.580Z,25.54
2018-08-04T23:31:26.059Z,25.51
2018-08-04T23:33:56.616Z,25.46
2018-08-04T23:36:27.443Z,25.45
2018-08-04T23:38:58.428Z,25.42
2018-08-04T23:41:29.373Z,25.37
2018-08-04T23:44:00.387Z,25.33
2018-08-04T23:46:31.309Z,25.31
2018-08-04T23:49:02.666Z,25.29
2018-08-04T23:51:33.356Z,25.26
2018-08-04T23:54:04.364Z,25.24
2018-08-04T23:56:35.320Z,25.22
2018-08-04T23:59:06.413Z,25.21
